createdAt,value
2023-01-07T00:01:12.605Z,100847.50
2023-01-07T00:03:40.259Z,100843.41
2023-01-07T00:06:08.623Z,100844.22
2023-01-07T00:08:38.850Z,100845.72
2023-01-07T00:11:08.275Z,100838.50
2023-01-07T00:13:35.673Z,100834.09
2023-01-07T00:16:08.698Z,100843.97
2023-01-07T00:18:36.489Z,100834.41
2023-01-07T00:21:06.420Z,100827.22
2023-01-07T00:23:34.890Z,100835.09
2023-01-07T00:26:16.655Z,100826.94
2023-01-07T00:28:45.571Z,100819.19
2023-01-07T00:31:17.454Z,100820.00
2023-01-07T00:33:54.356Z,100819.53
2023-01-07T00:36:23.045Z,100820.53
2023-01-07T00:39:00.002Z,100813.00
2023-01-07T00:41:27.731Z,100819.03
2023-01-07T00:43:55.008Z,100815.78
2023-01-07T00:46:22.463Z,100807.41
2023-01-07T00:48:49.670Z,100800.34
2023-01-07T00:51:17.873Z,100797.41
2023-01-07T00:53:44.870Z,100794.16
2023-01-07T00:56:13.981Z,100786.97
2023-01-07T00:58:40.735Z,100789.75
2023-01-07T01:01:07.798Z,100779.75
2023-01-07T01:03:34.701Z,100787.28
2023-01-07T01:06:08.303Z,100782.84
2023-01-07T01:08:35.078Z,100787.28
2023-01-07T01:11:06.899Z,100778.91
2023-01-07T01:13:34.923Z,100775.50
2023-01-07T01:16:02.054Z,100768.97
2023-01-07T01:18:28.881Z,100774.84
2023-01-07T01:20:55.671Z,100774.16
2023-01-07T01:23:22.485Z,100771.44
2023-01-07T01:25:49.371Z,100761.78
2023-01-07T01:28:16.204Z,100757.69
2023-01-07T01:30:42.836Z,100748.84
2023-01-07T01:33:11.185Z,100757.81
2023-01-07T01:35:41.756Z,100757.34
2023-01-07T01:38:09.144Z,100754.56
2023-01-07T01:40:35.966Z,100754.09
2023-01-07T01:43:04.617Z,100752.66
2023-01-07T01:45:32.102Z,100757.56
2023-01-07T01:48:09.997Z,100759.16
2023-01-07T01:50:45.727Z,100755.03
2023-01-07T01:53:21.691Z,100751.97
2023-01-07T01:56:03.341Z,100747.06
2023-01-07T01:58:36.156Z,100747.06
2023-01-07T02:01:03.989Z,100749.41
2023-01-07T02:03:34.432Z,100743.16
2023-01-07T02:06:02.135Z,100751.69
2023-01-07T02:08:28.846Z,100746.78
2023-01-07T02:11:19.567Z,100740.72
2023-01-07T02:13:55.332Z,100741.81
2023-01-07T02:16:32.753Z,100740.53
2023-01-07T02:19:18.159Z,100738.91
2023-01-07T02:21:51.430Z,100738.09
2023-01-07T02:24:56.595Z,100732.06
2023-01-07T02:28:01.273Z,100729.13
2023-01-07T02:30:56.380Z,100724.22
2023-01-07T02:33:39.804Z,100721.63
2023-01-07T02:36:19.635Z,100723.41
2023-01-07T02:39:40.820Z,100713.06
2023-01-07T02:42:12.849Z,100713.22
2023-01-07T03:05:07.857Z,100681.53
2023-01-07T03:08:11.921Z,100679.91
2023-01-07T03:10:59.741Z,100683.72
2023-01-07T03:13:45.917Z,100678.53
2023-01-07T03:16:21.861Z,100676.56
2023-01-07T03:18:59.324Z,100673.78
2023-01-07T03:21:32.157Z,100688.88
2023-01-07T03:24:01.479Z,100688.56
2023-01-07T03:26:37.521Z,100691.34
2023-01-07T03:29:07.672Z,100692.50
2023-01-07T03:31:37.678Z,100682.53
2023-01-07T03:34:08.947Z,100675.63
2023-01-07T03:36:53.087Z,100682.06
2023-01-07T03:39:23.504Z,100678.78
2023-01-07T03:42:10.318Z,100678.31
2023-01-07T03:44:37.674Z,100678.78
2023-01-07T03:47:06.892Z,100670.22
2023-01-07T03:49:35.067Z,100668.44
2023-01-07T03:52:02.500Z,100657.16
2023-01-07T03:54:29.257Z,100663.41
2023-01-07T03:56:56.216Z,100655.72
2023-01-07T03:59:23.186Z,100652.28
2023-01-07T04:01:50.408Z,100648.34
2023-01-07T04:04:17.538Z,100647.38
2023-01-07T04:06:44.521Z,100642.47
2023-01-07T04:09:12.305Z,100638.75
2023-01-07T04:11:39.072Z,100641.00
2023-01-07T04:14:05.866Z,100635.75
2023-01-07T04:16:33.557Z,100632.81
2023-01-07T04:19:00.741Z,100644.50
2023-01-07T04:21:27.616Z,100634.16
2023-01-07T04:23:54.375Z,100629.41
2023-01-07T04:26:21.396Z,100623.84
2023-01-07T04:28:48.231Z,100636.28
2023-01-07T04:31:15.319Z,100624.34
2023-01-07T04:33:42.169Z,100622.25
2023-01-07T04:36:10.034Z,100618.63
2023-01-07T04:38:37.313Z,100613.09
2023-01-07T04:41:04.630Z,100609.13
2023-01-07T04:43:31.815Z,100601.28
2023-01-07T04:45:58.384Z,100593.91
2023-01-07T04:48:25.276Z,100594.41
2023-01-07T04:50:53.989Z,100588.66
2023-01-07T04:53:20.785Z,100594.06
2023-01-07T04:55:48.976Z,100586.75
2023-01-07T04:58:16.329Z,100585.78
2023-01-07T05:00:43.107Z,100584.94
2023-01-07T05:03:10.888Z,100577.09
2023-01-07T05:05:37.773Z,100571.47
2023-01-07T05:08:05.256Z,100572.31
2023-01-07T05:10:32.989Z,100563.84
2023-01-07T05:13:00.911Z,100566.75
2023-01-07T05:15:27.559Z,100567.09
2023-01-07T05:17:55.520Z,100554.53
2023-01-07T05:20:24.439Z,100549.78
2023-01-07T05:22:51.370Z,100554.69
2023-01-07T05:25:19.055Z,100551.41
2023-01-07T05:27:46.002Z,100551.41
2023-01-07T05:30:13.250Z,100545.50
2023-01-07T05:32:40.095Z,100543.09
2023-01-07T05:35:07.180Z,100539.03
2023-01-07T05:37:34.146Z,100540.00
2023-01-07T05:40:01.731Z,100540.81
2023-01-07T05:42:29.140Z,100539.66
2023-01-07T05:44:55.987Z,100537.53
2023-01-07T05:47:22.650Z,100543.09
2023-01-07T05:49:49.474Z,100535.44
2023-01-07T05:52:16.129Z,100532.63
2023-01-07T05:54:42.841Z,100537.69
2023-01-07T05:57:09.676Z,100534.09
2023-01-07T05:59:36.474Z,100531.97
2023-01-07T06:02:03.509Z,100526.59
2023-01-07T06:04:30.423Z,100524.19
2023-01-07T06:06:57.349Z,100520.06
2023-01-07T06:09:24.131Z,100518.94
2023-01-07T06:11:50.975Z,100521.25
2023-01-07T06:14:17.754Z,100518.47
2023-01-07T06:16:44.403Z,100519.59
2023-01-07T06:19:11.630Z,100518.25
2023-01-07T06:21:39.066Z,100518.00
2023-01-07T06:24:06.591Z,100506.19
2023-01-07T06:26:33.305Z,100495.72
2023-01-07T06:29:00.230Z,100491.78
2023-01-07T06:31:27.084Z,100492.59
2023-01-07T06:33:53.879Z,100482.34
2023-01-07T06:36:20.525Z,100476.88
2023-01-07T06:38:47.457Z,100477.88
2023-01-07T06:41:14.304Z,100472.50
2023-01-07T06:43:41.025Z,100468.22
2023-01-07T06:46:07.909Z,100465.06
2023-01-07T06:48:34.798Z,100456.56
2023-01-07T06:51:01.650Z,100458.16
2023-01-07T06:53:28.917Z,100455.31
2023-01-07T06:55:55.646Z,100453.75
2023-01-07T06:58:22.445Z,100452.66
2023-01-07T07:00:49.181Z,100449.34
2023-01-07T07:03:16.079Z,100445.66
2023-01-07T07:05:42.789Z,100448.16
2023-01-07T07:08:09.551Z,100440.97
2023-01-07T07:10:36.304Z,100437.53
2023-01-07T07:13:03.301Z,100443.47
2023-01-07T07:15:29.971Z,100445.25
2023-01-07T07:17:56.621Z,100444.00
2023-01-07T07:20:23.331Z,100454.09
2023-01-07T07:22:50.043Z,100437.59
2023-01-07T07:25:16.833Z,100442.31
2023-01-07T07:27:46.847Z,100435.34
2023-01-07T07:30:15.204Z,100431.84
2023-01-07T07:32:42.801Z,100426.72
2023-01-07T07:35:10.647Z,100427.66
2023-01-07T07:37:38.148Z,100429.75
2023-01-07T07:40:06.250Z,100427.75
2023-01-07T07:42:32.995Z,100421.03
2023-01-07T07:45:19.952Z,100417.56
2023-01-07T07:47:47.229Z,100419.97
2023-01-07T07:50:14.045Z,100415.22
2023-01-07T07:52:40.893Z,100412.88
2023-01-07T07:55:20.627Z,100405.78
2023-01-07T07:57:57.274Z,100406.72
2023-01-07T08:00:25.035Z,100401.13
2023-01-07T08:02:51.911Z,100405.56
2023-01-07T08:05:18.888Z,100401.25
2023-01-07T08:07:45.782Z,100398.59
2023-01-07T08:10:12.593Z,100402.06
2023-01-07T08:12:39.661Z,100401.38
2023-01-07T08:15:08.293Z,100403.47
2023-01-07T08:17:36.519Z,100396.69
2023-01-07T08:20:05.009Z,100390.41
2023-01-07T08:22:33.345Z,100390.41
2023-01-07T08:25:00.572Z,100384.13
2023-01-07T08:27:27.898Z,100384.84
2023-01-07T08:29:55.633Z,100391.34
2023-01-07T08:32:22.272Z,100381.78
2023-01-07T08:34:48.936Z,100384.69
2023-01-07T08:37:15.629Z,100375.50
2023-01-07T08:39:42.301Z,100375.63
2023-01-07T08:42:08.943Z,100365.28
2023-01-07T08:44:35.828Z,100372.50
2023-01-07T08:47:02.830Z,100363.84
2023-01-07T08:49:29.758Z,100363.84
2023-01-07T08:51:56.558Z,100363.84
2023-01-07T08:54:23.343Z,100360.00
2023-01-07T08:56:50.060Z,100360.00
2023-01-07T08:59:16.881Z,100361.75
2023-01-07T09:01:43.903Z,100353.81
2023-01-07T09:04:10.850Z,100347.41
2023-01-07T09:06:37.693Z,100357.59
2023-01-07T09:09:04.768Z,100348.34
2023-01-07T09:11:31.413Z,100349.94
2023-01-07T09:13:58.172Z,100351.69
2023-01-07T09:16:24.945Z,100348.41
2023-01-07T09:18:51.682Z,100341.81
2023-01-07T09:21:18.401Z,100341.91
2023-01-07T09:23:45.106Z,100332.81
2023-01-07T09:26:11.735Z,100336.06
2023-01-07T09:28:38.413Z,100327.25
2023-01-07T09:31:05.593Z,100328.13
2023-01-07T09:33:32.699Z,100325.72
2023-01-07T09:35:59.580Z,100331.47
2023-01-07T09:38:26.371Z,100321.84
2023-01-07T09:40:53.472Z,100325.06
2023-01-07T09:43:59.692Z,100321.84
2023-01-07T09:46:28.462Z,100317.88
2023-01-07T09:48:59.910Z,100317.44
2023-01-07T09:51:54.470Z,100307.53
2023-01-07T09:54:36.836Z,100295.88
2023-01-07T09:57:04.658Z,100300.22
2023-01-07T09:59:31.814Z,100297.97
2023-01-07T10:02:20.021Z,100292.91
2023-01-07T10:05:17.036Z,100273.19
2023-01-07T10:07:54.075Z,100275.28
2023-01-07T10:10:44.873Z,100282.47
2023-01-07T10:13:11.800Z,100286.19
2023-01-07T10:16:07.480Z,100269.41
2023-01-07T10:19:01.590Z,100259.06
2023-01-07T10:21:52.237Z,100258.44
2023-01-07T10:24:41.726Z,100248.44
2023-01-07T10:27:13.713Z,100236.97
2023-01-07T10:29:54.641Z,100235.09
2023-01-07T10:32:24.407Z,100236.16
2023-01-07T10:34:56.690Z,100231.56
2023-01-07T10:37:28.592Z,100224.34
2023-01-07T10:40:01.186Z,100215.25
2023-01-07T10:42:56.694Z,100204.50
2023-01-07T10:45:41.680Z,100194.97
2023-01-07T10:48:21.431Z,100177.38
2023-01-07T10:51:03.138Z,100169.72
2023-01-07T10:54:00.077Z,100166.22
2023-01-07T10:56:32.283Z,100157.47
2023-01-07T10:59:04.366Z,100147.09
2023-01-07T11:01:37.269Z,100133.50
2023-01-07T11:04:11.443Z,100147.09
2023-01-07T11:06:41.270Z,100135.91
2023-01-07T11:09:13.884Z,100131.88
2023-01-07T11:11:42.260Z,100135.13
2023-01-07T11:14:19.860Z,100115.09
2023-01-07T11:16:51.668Z,100119.97
2023-01-07T11:19:18.467Z,100114.66
2023-01-07T11:21:48.742Z,100115.09
2023-01-07T11:24:35.627Z,100107.91
2023-01-07T11:27:14.500Z,100109.50
2023-01-07T11:29:46.550Z,100109.41
2023-01-07T11:32:28.527Z,100099.88
2023-01-07T11:35:06.375Z,100097.47
2023-01-07T11:37:38.970Z,100091.06
2023-01-07T11:40:14.886Z,100093.03
2023-01-07T11:42:53.912Z,100087.88
2023-01-07T11:45:24.827Z,100089.06
2023-01-07T11:48:18.862Z,100094.28
2023-01-07T11:50:54.110Z,100087.88
2023-01-07T11:53:41.281Z,100074.63
2023-01-07T11:56:12.041Z,100077.44
2023-01-07T11:59:15.663Z,100061.47
2023-01-07T12:01:44.283Z,100061.13
2023-01-07T12:04:25.638Z,100052.75
2023-01-07T12:06:56.094Z,100052.75
2023-01-07T12:09:31.950Z,100044.38
2023-01-07T12:12:07.214Z,100032.72
2023-01-07T12:14:37.192Z,100034.78
2023-01-07T12:17:24.880Z,100028.03
2023-01-07T12:19:51.467Z,100027.22
2023-01-07T12:22:33.263Z,100028.84
2023-01-07T12:25:14.667Z,100019.22
2023-01-07T12:28:06.779Z,100019.75
2023-01-07T12:31:00.145Z,100011.34
2023-01-07T12:33:36.404Z,99998.13
2023-01-07T12:36:16.044Z,99997.31
2023-01-07T12:38:50.616Z,99989.81
2023-01-07T12:41:27.311Z,100000.91
2023-01-07T12:44:12.983Z,99997.75
2023-01-07T12:46:50.477Z,99996.13
2023-01-07T12:49:25.530Z,99995.25
2023-01-07T12:52:01.119Z,99996.94
2023-01-07T12:54:58.096Z,99994.59
2023-01-07T12:57:34.318Z,99989.00
2023-01-07T13:00:09.990Z,99983.41
2023-01-07T13:02:48.340Z,99988.09
2023-01-07T13:05:42.701Z,99979.81
2023-01-07T13:08:46.257Z,99984.22
2023-01-07T13:11:41.704Z,99977.00
2023-01-07T13:14:36.331Z,99969.88
2023-01-07T13:17:30.831Z,99968.19
2023-01-07T13:19:57.832Z,99958.63
2023-01-07T13:22:50.856Z,99964.66
2023-01-07T13:25:26.597Z,99962.75
2023-01-07T13:28:25.987Z,99963.47
2023-01-07T13:31:19.958Z,99943.47
2023-01-07T13:33:56.475Z,99938.63
2023-01-07T13:36:58.393Z,99936.28
2023-01-07T13:39:49.334Z,99937.91
2023-01-07T13:42:25.217Z,99942.75
2023-01-07T13:45:01.917Z,99947.59
2023-01-07T13:47:41.376Z,99946.47
2023-01-07T13:50:19.394Z,99936.84
2023-01-07T13:52:58.439Z,99920.50
2023-01-07T13:55:30.783Z,99913.75
2023-01-07T13:57:57.552Z,99918.91
2023-01-07T14:00:41.433Z,99914.56
2023-01-07T14:03:33.002Z,99921.31
2023-01-07T14:06:42.597Z,99908.16
2023-01-07T14:09:13.609Z,99895.88
2023-01-07T14:11:42.065Z,99896.25
2023-01-07T14:14:30.335Z,99890.28
2023-01-07T14:17:05.923Z,99886.38
2023-01-07T14:20:03.793Z,99884.75
2023-01-07T14:23:06.967Z,99886.38
2023-01-07T14:29:01.545Z,99874.03
2023-01-07T14:31:30.652Z,99868.44
2023-01-07T14:34:00.422Z,99865.66
2023-01-07T14:37:02.434Z,99867.25
2023-01-07T14:39:33.324Z,99856.81
2023-01-07T14:45:39.281Z,99846.09
2023-01-07T14:48:08.562Z,99837.25
2023-01-07T14:50:40.002Z,99840.03
2023-01-07T14:53:33.897Z,99843.22
2023-01-07T14:56:15.571Z,99836.94
2023-01-07T14:58:50.745Z,99833.28
2023-01-07T15:01:42.329Z,99829.66
2023-01-07T15:04:53.489Z,99829.19
2023-01-07T15:07:30.231Z,99830.06
2023-01-07T15:10:20.705Z,99826.38
2023-01-07T15:13:08.957Z,99824.00
2023-01-07T15:15:58.563Z,99819.97
2023-01-07T15:18:25.877Z,99823.16
2023-01-07T15:21:06.552Z,99823.97
2023-01-07T15:23:36.389Z,99815.94
2023-01-07T15:26:17.776Z,99813.97
2023-01-07T15:28:49.040Z,99799.50
2023-01-07T15:31:29.058Z,99800.34
2023-01-07T15:34:04.337Z,99801.88
2023-01-07T15:36:45.110Z,99794.34
2023-01-07T15:39:41.306Z,99795.06
2023-01-07T15:42:22.255Z,99787.81
2023-01-07T15:44:56.411Z,99789.00
2023-01-07T15:47:41.654Z,99772.63
2023-01-07T15:50:14.419Z,99759.81
2023-01-07T15:52:47.447Z,99775.78
2023-01-07T15:55:21.650Z,99777.47
2023-01-07T15:57:49.039Z,99777.31
2023-01-07T16:00:16.059Z,99774.22
2023-01-07T16:02:44.054Z,99767.06
2023-01-07T16:05:10.941Z,99769.00
2023-01-07T16:07:43.435Z,99772.63
2023-01-07T16:10:42.635Z,99777.00
2023-01-07T16:13:21.064Z,99769.06
2023-01-07T16:15:54.577Z,99770.25
2023-01-07T16:18:21.430Z,99767.06
2023-01-07T16:21:02.648Z,99767.03
2023-01-07T16:23:32.901Z,99767.47
2023-01-07T16:26:28.606Z,99765.41
2023-01-07T16:29:02.118Z,99771.34
2023-01-07T16:31:30.605Z,99771.00
2023-01-07T16:33:59.642Z,99778.22
2023-01-07T16:36:40.728Z,99762.97
2023-01-07T16:39:20.593Z,99771.00
2023-01-07T16:41:47.591Z,99763.78
2023-01-07T16:44:44.860Z,99763.34
2023-01-07T16:47:19.185Z,99759.75
2023-01-07T16:49:45.951Z,99757.34
2023-01-07T16:52:15.478Z,99754.91
2023-01-07T16:54:44.308Z,99748.16
2023-01-07T16:57:10.914Z,99751.75
2023-01-07T16:59:49.629Z,99753.34
2023-01-07T17:02:33.294Z,99753.06
2023-01-07T17:05:21.696Z,99741.75
2023-01-07T17:07:53.256Z,99754.91
2023-01-07T17:10:35.122Z,99754.09
2023-01-07T17:13:07.377Z,99745.72
2023-01-07T17:15:39.447Z,99740.19
2023-01-07T17:18:12.502Z,99740.59
2023-01-07T17:20:59.293Z,99732.56
2023-01-07T17:23:28.917Z,99728.94
2023-01-07T17:26:06.836Z,99725.41
2023-01-07T17:28:55.279Z,99719.78
2023-01-07T17:31:23.551Z,99719.47
2023-01-07T17:33:52.000Z,99719.03
2023-01-07T17:36:21.681Z,99717.34
2023-01-07T17:38:48.689Z,99709.41
2023-01-07T17:41:39.205Z,99699.03
2023-01-07T17:44:09.307Z,99704.19
2023-01-07T17:46:36.050Z,99693.91
2023-01-07T17:49:02.616Z,99694.25
2023-01-07T17:51:29.650Z,99690.22
2023-01-07T17:54:22.254Z,99690.28
2023-01-07T17:56:49.723Z,99681.47
2023-01-07T17:59:21.938Z,99686.31
2023-01-07T18:01:51.470Z,99682.28
2023-01-07T18:04:18.353Z,99673.53
2023-01-07T18:06:45.588Z,99693.44
2023-01-07T18:09:13.653Z,99692.63
2023-01-07T18:12:02.434Z,99692.22
2023-01-07T18:14:29.164Z,99684.72
2023-01-07T18:16:55.914Z,99699.09
2023-01-07T18:19:22.551Z,99687.94
2023-01-07T18:21:49.398Z,99679.53
2023-01-07T18:24:19.673Z,99682.00
2023-01-07T18:26:46.783Z,99678.06
2023-01-07T18:29:14.059Z,99677.63
2023-01-07T18:31:43.708Z,99682.47
2023-01-07T18:34:12.395Z,99682.47
2023-01-07T18:36:39.629Z,99688.84
2023-01-07T18:39:09.086Z,99686.78
2023-01-07T18:41:38.987Z,99688.06
2023-01-07T18:44:05.822Z,99680.41
2023-01-07T18:46:32.833Z,99664.50
2023-01-07T18:49:00.016Z,99659.31
2023-01-07T18:51:26.969Z,99663.66
2023-01-07T18:53:53.764Z,99676.88
2023-01-07T18:56:20.631Z,99669.59
2023-01-07T18:59:05.687Z,99674.38
2023-01-07T19:01:33.006Z,99676.81
2023-01-07T19:03:59.946Z,99677.19
2023-01-07T19:06:26.785Z,99687.19
2023-01-07T19:08:55.364Z,99680.41
2023-01-07T19:11:22.007Z,99663.22
2023-01-07T19:13:48.900Z,99680.72
2023-01-07T19:16:15.795Z,99680.72
2023-01-07T19:18:42.701Z,99686.75
2023-01-07T19:21:11.644Z,99697.53
2023-01-07T19:23:38.967Z,99700.72
2023-01-07T19:26:09.461Z,99704.69
2023-01-07T19:28:36.232Z,99707.91
2023-01-07T19:31:07.911Z,99699.09
2023-01-07T19:33:35.260Z,99690.28
2023-01-07T19:36:09.054Z,99686.75
2023-01-07T19:38:43.509Z,99684.31
2023-01-07T19:41:12.946Z,99681.09
2023-01-07T19:43:39.676Z,99675.88
2023-01-07T19:46:08.069Z,99665.91
2023-01-07T19:48:34.771Z,99661.47
2023-01-07T19:51:03.844Z,99671.84
2023-01-07T19:53:31.665Z,99661.91
2023-01-07T19:56:03.178Z,99668.31
2023-01-07T19:58:29.837Z,99665.91
2023-01-07T20:01:02.209Z,99660.75
2023-01-07T20:03:31.442Z,99663.91
2023-01-07T20:06:06.373Z,99659.13
2023-01-07T20:08:33.854Z,99653.50
2023-01-07T20:11:00.901Z,99653.97
2023-01-07T20:13:29.221Z,99662.28
2023-01-07T20:15:56.171Z,99659.44
2023-01-07T20:18:23.282Z,99659.94
2023-01-07T20:20:57.731Z,99657.47
2023-01-07T20:23:24.908Z,99659.00
2023-01-07T20:25:51.691Z,99651.06
2023-01-07T20:28:18.740Z,99652.69
2023-01-07T20:30:45.702Z,99653.50
2023-01-07T20:33:12.368Z,99648.75
2023-01-07T20:35:39.733Z,99653.50
2023-01-07T20:38:09.376Z,99640.69
2023-01-07T20:40:42.445Z,99621.22
2023-01-07T20:43:09.777Z,99637.63
2023-01-07T20:45:38.383Z,99646.03
2023-01-07T20:48:05.541Z,99644.84
2023-01-07T20:50:35.604Z,99636.81
2023-01-07T20:53:02.401Z,99645.59
2023-01-07T20:55:29.098Z,99644.84
2023-01-07T20:57:55.808Z,99647.94
2023-01-07T21:00:22.499Z,99650.31
2023-01-07T21:03:07.962Z,99647.09
2023-01-07T21:05:37.298Z,99652.34
2023-01-07T21:08:03.864Z,99650.97
2023-01-07T21:10:30.519Z,99651.38
2023-01-07T21:12:57.193Z,99635.78
2023-01-07T21:15:23.931Z,99646.97
2023-01-07T21:17:53.803Z,99634.19
2023-01-07T21:20:20.468Z,99642.13
2023-01-07T21:22:48.145Z,99632.59
2023-01-07T21:25:16.081Z,99624.34
2023-01-07T21:27:43.174Z,99636.72
2023-01-07T21:30:16.445Z,99629.66
2023-01-07T21:32:43.615Z,99618.50
2023-01-07T21:35:12.105Z,99627.38
2023-01-07T21:37:39.385Z,99627.34
2023-01-07T21:40:07.401Z,99623.72
2023-01-07T21:42:37.024Z,99629.25
2023-01-07T21:45:04.611Z,99626.47
2023-01-07T21:47:31.906Z,99623.59
2023-01-07T21:49:59.460Z,99634.84
2023-01-07T21:52:26.169Z,99632.19
2023-01-07T21:54:52.877Z,99641.72
2023-01-07T21:57:20.279Z,99639.69
2023-01-07T21:59:46.992Z,99634.78
2023-01-07T22:02:13.844Z,99636.75
2023-01-07T22:04:40.877Z,99635.97
2023-01-07T22:07:13.393Z,99631.63
2023-01-07T22:09:40.189Z,99631.03
2023-01-07T22:12:07.209Z,99630.84
2023-01-07T22:14:34.091Z,99633.59
2023-01-07T22:17:00.929Z,99637.06
2023-01-07T22:19:28.540Z,99634.59
2023-01-07T22:21:55.359Z,99629.00
2023-01-07T22:24:21.984Z,99619.72
2023-01-07T22:26:48.715Z,99617.09
2023-01-07T22:29:16.362Z,99611.31
2023-01-07T22:31:43.512Z,99618.44
2023-01-07T22:34:10.289Z,99609.50
2023-01-07T22:36:56.530Z,99603.94
2023-01-07T22:39:46.153Z,99598.34
2023-01-07T22:42:20.989Z,99597.34
2023-01-07T22:44:53.460Z,99596.13
2023-01-07T22:47:25.151Z,99596.41
2023-01-07T22:49:53.651Z,99601.13
2023-01-07T22:52:20.905Z,99594.75
2023-01-07T22:54:47.769Z,99591.81
2023-01-07T22:57:14.673Z,99601.66
2023-01-07T22:59:41.541Z,99595.56
2023-01-07T23:02:08.334Z,99596.69
2023-01-07T23:04:35.099Z,99591.84
2023-01-07T23:07:02.036Z,99598.19
2023-01-07T23:09:28.891Z,99592.16
2023-01-07T23:11:59.561Z,99595.31
2023-01-07T23:14:29.072Z,99576.53
2023-01-07T23:16:56.601Z,99565.31
2023-01-07T23:19:23.467Z,99567.66
2023-01-07T23:21:52.371Z,99558.88
2023-01-07T23:24:19.561Z,99562.81
2023-01-07T23:26:48.311Z,99560.75
2023-01-07T23:29:15.837Z,99553.94
2023-01-07T23:31:42.639Z,99545.06
2023-01-07T23:34:09.767Z,99546.25
2023-01-07T23:36:37.375Z,99542.56
2023-01-07T23:39:05.268Z,99537.72
2023-01-07T23:41:32.812Z,99540.09
2023-01-07T23:43:59.423Z,99541.63
2023-01-07T23:46:26.111Z,99547.56
2023-01-07T23:48:52.793Z,99550.72
2023-01-07T23:51:21.013Z,99539.50
2023-01-07T23:53:48.193Z,99544.66
2023-01-07T23:56:18.468Z,99554.97
2023-01-07T23:58:45.140Z,99549.31
